createdAt,value
2018-12-09T00:00:07.957Z,97869.84
2018-12-09T00:03:12.687Z,97868.30
2018-12-09T00:06:17.142Z,97866.52
2018-12-09T00:09:21.738Z,97861.55
2018-12-09T00:12:26.297Z,97859.67
2018-12-09T00:15:30.918Z,97874.17
2018-12-09T00:18:35.428Z,97874.25
2018-12-09T00:21:39.965Z,97864.76
2018-12-09T00:24:44.504Z,97864.81
2018-12-09T00:27:49.014Z,97890.87
2018-12-09T00:30:53.842Z,97894.95
2018-12-09T00:33:58.414Z,97875.59
2018-12-09T00:37:02.938Z,97847.52
2018-12-09T00:40:07.910Z,97848.41
2018-12-09T00:43:12.629Z,97863.12
2018-12-09T00:46:17.215Z,97891.84
2018-12-09T00:49:21.816Z,97839.44
2018-12-09T00:52:26.336Z,97877.80
2018-12-09T00:55:30.955Z,97861.45
2018-12-09T00:58:35.405Z,97831.42
2018-12-09T01:01:39.965Z,97848.33
2018-12-09T01:04:44.619Z,97863.53
2018-12-09T01:07:49.261Z,97849.59
2018-12-09T01:10:53.860Z,97842.60
2018-12-09T01:13:58.461Z,97844.87
2018-12-09T01:17:03.062Z,97846.15
2018-12-09T01:20:09.305Z,97872.04
2018-12-09T01:23:13.816Z,97858.08
2018-12-09T01:26:18.621Z,97863.14
2018-12-09T01:29:23.170Z,97858.05
2018-12-09T01:32:28.192Z,97839.17
2018-12-09T01:35:32.746Z,97847.03
2018-12-09T01:38:37.295Z,97844.88
2018-12-09T01:41:41.862Z,97847.03
2018-12-09T01:44:46.451Z,97823.33
2018-12-09T01:47:51.087Z,97831.89
2018-12-09T01:50:55.640Z,97835.92
2018-12-09T01:54:16.893Z,97830.41
2018-12-09T01:57:21.482Z,97836.14
2018-12-09T02:00:26.245Z,97833.46
2018-12-09T02:03:30.749Z,97817.52
2018-12-09T02:06:35.447Z,97828.36
2018-12-09T02:09:40.131Z,97822.03
2018-12-09T02:12:44.962Z,97828.75
2018-12-09T02:15:49.413Z,97817.70
2018-12-09T02:19:18.634Z,97826.08
2018-12-09T02:22:23.170Z,97836.48
2018-12-09T02:25:27.839Z,97817.38
2018-12-09T02:28:32.398Z,97824.98
2018-12-09T02:31:37.584Z,97807.19
2018-12-09T02:34:52.458Z,97823.56
2018-12-09T02:37:57.064Z,97813.63
2018-12-09T02:41:01.578Z,97818.53
2018-12-09T02:44:06.566Z,97797.38
2018-12-09T02:47:11.484Z,97805.64
2018-12-09T02:50:16.163Z,97793.11
2018-12-09T02:53:20.837Z,97809.28
2018-12-09T02:56:25.366Z,97805.46
2018-12-09T02:59:30.119Z,97834.09
2018-12-09T03:02:34.771Z,97807.67
2018-12-09T03:05:39.248Z,97803.16
2018-12-09T03:08:43.720Z,97797.45
2018-12-09T03:11:48.169Z,97794.18
2018-12-09T03:14:52.790Z,97811.16
2018-12-09T03:17:57.415Z,97816.77
2018-12-09T03:21:02.085Z,97817.02
2018-12-09T03:24:06.704Z,97827.80
2018-12-09T03:27:11.487Z,97823.20
2018-12-09T03:30:16.223Z,97826.50
2018-12-09T03:33:20.822Z,97829.70
2018-12-09T03:36:25.483Z,97815.38
2018-12-09T03:39:30.108Z,97832.30
2018-12-09T03:42:34.655Z,97833.76
2018-12-09T03:45:39.244Z,97846.39
2018-12-09T03:48:43.842Z,97838.64
2018-12-09T03:51:48.346Z,97860.39
2018-12-09T03:54:54.345Z,97854.58
2018-12-09T03:57:58.972Z,97872.94
2018-12-09T04:01:03.513Z,97880.12
2018-12-09T04:04:08.187Z,97879.35
2018-12-09T04:07:12.664Z,97879.17
2018-12-09T04:10:17.150Z,97871.34
2018-12-09T04:13:21.709Z,97886.80
2018-12-09T04:16:26.322Z,97881.92
2018-12-09T04:19:31.024Z,97887.56
2018-12-09T04:22:35.552Z,97894.92
2018-12-09T04:25:40.152Z,97898.09
2018-12-09T04:28:44.852Z,97900.67
2018-12-09T04:31:49.431Z,97894.77
2018-12-09T04:34:53.944Z,97911.19
2018-12-09T04:37:58.651Z,97918.05
2018-12-09T04:41:03.278Z,97909.46
2018-12-09T04:44:07.879Z,97920.52
2018-12-09T04:47:12.498Z,97915.48
2018-12-09T04:50:16.996Z,97923.62
2018-12-09T04:53:21.485Z,97903.48
2018-12-09T04:56:25.978Z,97922.31
2018-12-09T04:59:35.188Z,97928.22
2018-12-09T05:02:39.747Z,97929.67
2018-12-09T05:05:44.638Z,97932.78
2018-12-09T05:08:49.212Z,97938.58
2018-12-09T05:11:53.753Z,97950.28
2018-12-09T05:14:58.316Z,97942.64
2018-12-09T05:18:03.255Z,97947.58
2018-12-09T05:21:07.821Z,97964.02
2018-12-09T05:24:12.490Z,97950.77
2018-12-09T05:27:16.998Z,97960.62
2018-12-09T05:30:23.180Z,97965.05
2018-12-09T05:33:27.767Z,97967.27
2018-12-09T05:36:32.342Z,97969.78
2018-12-09T05:39:36.885Z,97978.81
2018-12-09T05:42:41.729Z,97980.97
2018-12-09T05:45:46.475Z,97965.98
2018-12-09T05:48:50.905Z,97973.45
2018-12-09T05:51:55.444Z,97982.44
2018-12-09T05:55:00.342Z,97972.21
2018-12-09T05:58:04.880Z,97962.23
2018-12-09T06:01:09.465Z,98003.42
2018-12-09T06:04:13.971Z,97984.91
2018-12-09T06:07:18.880Z,97997.83
2018-12-09T06:10:23.693Z,98011.79
2018-12-09T06:13:28.192Z,98010.94
2018-12-09T06:16:32.689Z,98006.06
2018-12-09T06:19:37.753Z,98004.09
2018-12-09T06:22:42.234Z,98013.66
2018-12-09T06:25:46.780Z,98001.50
2018-12-09T06:28:51.359Z,98014.55
2018-12-09T06:31:56.204Z,97990.67
2018-12-09T06:35:00.692Z,98027.12
2018-12-09T06:38:05.229Z,98011.52
2018-12-09T06:41:09.784Z,98007.84
2018-12-09T06:44:14.438Z,98016.43
2018-12-09T06:47:18.902Z,98007.84
2018-12-09T06:50:23.503Z,98030.65
2018-12-09T06:53:28.114Z,98022.44
2018-12-09T06:56:32.628Z,98046.55
2018-12-09T06:59:37.118Z,98047.15
2018-12-09T07:02:41.681Z,98025.69
2018-12-09T07:05:46.289Z,98047.00
2018-12-09T07:08:50.929Z,98040.02
2018-12-09T07:11:55.539Z,98046.42
2018-12-09T07:15:00.187Z,98042.16
2018-12-09T07:18:05.146Z,98038.66
2018-12-09T07:21:09.597Z,98033.98
2018-12-09T07:24:14.094Z,98038.63
2018-12-09T07:27:18.730Z,98045.08
2018-12-09T07:30:23.468Z,98045.11
2018-12-09T07:33:28.068Z,98051.81
2018-12-09T07:36:32.732Z,98057.64
2018-12-09T07:39:37.322Z,98058.19
2018-12-09T07:42:41.938Z,98065.25
2018-12-09T07:45:46.641Z,98065.70
2018-12-09T07:48:51.211Z,98069.59
2018-12-09T07:51:55.957Z,98086.91
2018-12-09T07:55:00.557Z,98090.31
2018-12-09T07:58:05.126Z,98090.75
2018-12-09T08:01:09.814Z,98107.58
2018-12-09T08:04:14.431Z,98106.65
2018-12-09T08:07:18.960Z,98086.50
2018-12-09T08:10:23.493Z,98101.84
2018-12-09T08:13:28.211Z,98105.55
2018-12-09T08:16:32.857Z,98132.14
2018-12-09T08:19:37.699Z,98146.03
2018-12-09T08:22:42.235Z,98149.91
2018-12-09T08:25:46.761Z,98145.18
2018-12-09T08:28:51.354Z,98140.47
2018-12-09T08:31:56.284Z,98114.98
2018-12-09T08:35:00.952Z,98157.05
2018-12-09T08:38:05.443Z,98144.02
2018-12-09T08:41:10.303Z,98154.16
2018-12-09T08:44:14.991Z,98136.23
2018-12-09T08:47:19.616Z,98154.14
2018-12-09T08:50:24.168Z,98156.67
2018-12-09T08:53:28.723Z,98145.66
2018-12-09T08:56:33.257Z,98143.28
2018-12-09T08:59:37.843Z,98154.93
2018-12-09T09:02:42.332Z,98155.14
2018-12-09T09:05:46.952Z,98153.50
2018-12-09T09:08:51.479Z,98160.39
2018-12-09T09:11:56.144Z,98155.38
2018-12-09T09:15:00.570Z,98157.22
2018-12-09T09:18:05.139Z,98159.95
2018-12-09T09:21:09.803Z,98154.32
2018-12-09T09:24:14.322Z,98168.02
2018-12-09T09:27:18.824Z,98154.66
2018-12-09T09:30:23.378Z,98173.12
2018-12-09T09:33:27.954Z,98173.30
2018-12-09T09:36:32.529Z,98166.72
2018-12-09T09:39:37.737Z,98172.90
2018-12-09T09:42:43.588Z,98171.14
2018-12-09T09:45:55.002Z,98150.55
2018-12-09T09:49:00.057Z,98157.05
2018-12-09T09:52:04.554Z,98148.83
2018-12-09T09:55:09.343Z,98160.61
2018-12-09T09:58:14.093Z,98150.59
2018-12-09T10:01:18.601Z,98167.20
2018-12-09T10:04:23.256Z,98163.41
2018-12-09T10:07:27.870Z,98168.61
2018-12-09T10:10:32.517Z,98164.70
2018-12-09T10:13:37.172Z,98165.74
2018-12-09T10:16:42.166Z,98169.09
2018-12-09T10:19:46.667Z,98177.52
2018-12-09T10:22:51.331Z,98170.48
2018-12-09T10:25:55.976Z,98161.66
2018-12-09T10:29:10.396Z,98166.50
2018-12-09T10:32:16.304Z,98168.19
2018-12-09T10:35:21.659Z,98161.76
2018-12-09T10:38:26.334Z,98153.89
2018-12-09T10:41:31.651Z,98166.53
2018-12-09T10:44:36.219Z,98163.00
2018-12-09T10:47:40.767Z,98172.00
2018-12-09T10:50:45.291Z,98167.16
2018-12-09T10:53:49.825Z,98172.50
2018-12-09T10:56:54.412Z,98162.01
2018-12-09T10:59:59.106Z,98168.55
2018-12-09T11:03:03.678Z,98163.16
2018-12-09T11:06:08.337Z,98155.06
2018-12-09T11:09:13.533Z,98147.59
2018-12-09T11:12:18.783Z,98155.87
2018-12-09T11:15:23.291Z,98157.41
2018-12-09T11:18:30.836Z,98170.20
2018-12-09T11:21:35.440Z,98169.14
2018-12-09T11:24:40.136Z,98169.22
2018-12-09T11:27:44.606Z,98177.14
2018-12-09T11:30:49.195Z,98188.13
2018-12-09T11:33:53.680Z,98172.31
2018-12-09T11:36:58.320Z,98179.40
2018-12-09T11:40:03.023Z,98176.66
2018-12-09T11:43:07.635Z,98180.91
2018-12-09T11:46:13.391Z,98178.22
2018-12-09T11:49:17.956Z,98174.91
2018-12-09T11:52:22.558Z,98166.27
2018-12-09T11:55:27.084Z,98173.22
2018-12-09T11:58:31.662Z,98169.27
2018-12-09T12:01:36.307Z,98167.16
2018-12-09T12:04:40.799Z,98177.02
2018-12-09T12:07:45.273Z,98180.55
2018-12-09T12:10:49.881Z,98168.55
2018-12-09T12:13:54.496Z,98177.15
2018-12-09T12:16:59.059Z,98171.63
2018-12-09T12:20:03.807Z,98171.47
2018-12-09T12:23:08.411Z,98170.55
2018-12-09T12:26:13.879Z,98186.21
2018-12-09T12:29:18.539Z,98180.69
2018-12-09T12:32:23.055Z,98168.57
2018-12-09T12:35:27.740Z,98171.96
2018-12-09T12:38:32.236Z,98177.13
2018-12-09T12:41:36.853Z,98177.08
2018-12-09T12:44:41.866Z,98183.61
2018-12-09T12:47:46.977Z,98186.02
2018-12-09T12:50:51.976Z,98187.33
2018-12-09T12:53:56.757Z,98190.38
2018-12-09T12:57:01.307Z,98182.42
2018-12-09T13:00:13.015Z,98198.52
2018-12-09T13:03:17.921Z,98197.66
2018-12-09T13:06:23.128Z,98190.64
2018-12-09T13:09:27.889Z,98203.30
2018-12-09T13:12:32.521Z,98201.69
2018-12-09T13:15:37.117Z,98197.97
2018-12-09T13:18:41.699Z,98203.86
2018-12-09T13:21:46.230Z,98201.57
2018-12-09T13:24:50.769Z,98196.06
2018-12-09T13:27:55.391Z,98209.50
2018-12-09T13:31:00.238Z,98195.03
2018-12-09T13:34:05.032Z,98201.18
2018-12-09T13:37:09.610Z,98195.62
2018-12-09T13:40:14.211Z,98200.25
2018-12-09T13:43:18.794Z,98199.11
2018-12-09T13:46:23.531Z,98198.69
2018-12-09T13:49:28.065Z,98202.94
2018-12-09T13:52:32.688Z,98206.38
2018-12-09T13:55:38.288Z,98216.45
2018-12-09T13:58:42.766Z,98211.68
2018-12-09T14:01:47.343Z,98235.94
2018-12-09T14:04:53.564Z,98248.40
2018-12-09T14:07:58.227Z,98239.04
2018-12-09T14:11:02.844Z,98247.95
2018-12-09T14:14:07.414Z,98255.33
2018-12-09T14:17:12.022Z,98264.77
2018-12-09T14:20:16.674Z,98276.97
2018-12-09T14:23:21.228Z,98308.75
2018-12-09T14:26:25.914Z,98303.95
2018-12-09T14:29:30.567Z,98309.06
2018-12-09T14:32:35.113Z,98331.77
2018-12-09T14:35:39.731Z,98356.00
2018-12-09T14:38:44.307Z,98372.13
2018-12-09T14:41:48.934Z,98379.59
2018-12-09T14:44:53.816Z,98391.71
2018-12-09T14:47:58.544Z,98393.59
2018-12-09T14:51:02.955Z,98372.41
2018-12-09T14:54:07.584Z,98367.49
2018-12-09T14:57:12.054Z,98366.33
2018-12-09T15:00:16.842Z,98372.13
2018-12-09T15:03:21.381Z,98371.89
2018-12-09T15:06:26.005Z,98375.07
2018-12-09T15:09:30.960Z,98382.23
2018-12-09T15:12:35.866Z,98389.37
2018-12-09T15:15:40.607Z,98393.23
2018-12-09T15:18:45.255Z,98386.98
2018-12-09T15:21:49.922Z,98408.55
2018-12-09T15:24:54.808Z,98412.05
2018-12-09T15:27:59.400Z,98418.75
2018-12-09T15:31:04.035Z,98422.67
2018-12-09T15:34:08.707Z,98427.28
2018-12-09T15:37:13.532Z,98437.70
2018-12-09T15:40:18.200Z,98445.53
2018-12-09T15:43:22.825Z,98462.09
2018-12-09T15:46:27.417Z,98469.92
2018-12-09T15:49:31.961Z,98467.16
2018-12-09T15:52:36.602Z,98467.23
2018-12-09T15:55:41.261Z,98476.24
2018-12-09T15:58:45.911Z,98480.39
2018-12-09T16:01:50.702Z,98495.89
2018-12-09T16:04:57.337Z,98516.26
2018-12-09T16:08:02.059Z,98516.70
2018-12-09T16:11:06.649Z,98527.70
2018-12-09T16:14:11.420Z,98537.97
2018-12-09T16:17:16.078Z,98537.89
2018-12-09T16:20:20.749Z,98546.97
2018-12-09T16:23:25.601Z,98554.60
2018-12-09T16:26:30.110Z,98559.67
2018-12-09T16:29:34.932Z,98565.55
2018-12-09T16:32:39.537Z,98570.67
2018-12-09T16:35:44.219Z,98582.30
2018-12-09T16:38:48.890Z,98586.61
2018-12-09T16:41:53.505Z,98598.78
2018-12-09T16:44:58.178Z,98600.71
2018-12-09T16:48:02.859Z,98613.05
2018-12-09T16:51:07.638Z,98615.34
2018-12-09T16:54:12.315Z,98630.05
2018-12-09T16:57:16.928Z,98628.59
2018-12-09T17:00:21.657Z,98642.14
2018-12-09T17:03:26.252Z,98651.42
2018-12-09T17:06:31.023Z,98653.89
2018-12-09T17:09:35.629Z,98667.75
2018-12-09T17:12:40.306Z,98677.77
2018-12-09T17:15:45.037Z,98677.13
2018-12-09T17:18:49.678Z,98679.28
2018-12-09T17:21:54.319Z,98677.30
2018-12-09T17:24:58.907Z,98675.67
2018-12-09T17:28:03.615Z,98667.09
2018-12-09T17:31:08.178Z,98668.09
2018-12-09T17:34:12.731Z,98680.98
2018-12-09T17:37:17.337Z,98682.21
2018-12-09T17:40:21.856Z,98692.02
2018-12-09T17:43:26.527Z,98692.33
2018-12-09T17:46:31.150Z,98694.12
2018-12-09T17:49:35.727Z,98705.02
2018-12-09T17:52:40.350Z,98728.23
2018-12-09T17:55:44.997Z,98730.69
2018-12-09T17:58:49.560Z,98724.18
2018-12-09T18:01:54.164Z,98739.23
2018-12-09T18:04:58.690Z,98754.36
2018-12-09T18:08:03.669Z,98766.30
2018-12-09T18:11:08.236Z,98772.31
2018-12-09T18:14:12.848Z,98781.34
2018-12-09T18:17:17.563Z,98781.86
2018-12-09T18:20:22.112Z,98795.20
2018-12-09T18:23:26.685Z,98791.03
2018-12-09T18:26:31.300Z,98796.68
2018-12-09T18:29:36.058Z,98793.91
2018-12-09T18:32:40.698Z,98798.64
2018-12-09T18:35:45.337Z,98803.56
2018-12-09T18:38:50.733Z,98812.65
2018-12-09T18:41:55.381Z,98818.19
2018-12-09T18:44:59.901Z,98821.20
2018-12-09T18:48:04.515Z,98829.23
2018-12-09T18:51:09.161Z,98837.16
2018-12-09T18:54:13.732Z,98842.27
2018-12-09T18:57:18.785Z,98856.01
2018-12-09T19:00:23.521Z,98866.23
2018-12-09T19:03:28.159Z,98859.62
2018-12-09T19:06:33.429Z,98874.78
2018-12-09T19:09:38.203Z,98877.84
2018-12-09T19:12:42.801Z,98877.70
2018-12-09T19:15:47.434Z,98894.78
2018-12-09T19:18:52.053Z,98900.39
2018-12-09T19:21:56.797Z,98916.55
2018-12-09T19:25:01.535Z,98908.84
2018-12-09T19:28:06.190Z,98920.00
2018-12-09T19:31:10.780Z,98933.58
2018-12-09T19:34:15.367Z,98935.05
2018-12-09T19:37:19.967Z,98955.67
2018-12-09T19:40:24.606Z,98951.03
2018-12-09T19:43:29.216Z,98974.13
2018-12-09T19:46:33.871Z,98975.24
2018-12-09T19:49:38.559Z,98996.67
2018-12-09T19:52:43.205Z,98991.08
2018-12-09T19:55:47.788Z,99002.03
2018-12-09T19:58:52.466Z,99011.92
2018-12-09T20:01:57.058Z,99017.28
2018-12-09T20:05:01.717Z,99033.98
2018-12-09T20:08:06.329Z,99038.91
2018-12-09T20:11:11.608Z,99039.70
2018-12-09T20:14:16.189Z,99041.98
2018-12-09T20:17:20.797Z,99044.56
2018-12-09T20:20:25.454Z,99051.06
2018-12-09T20:23:30.299Z,99059.31
2018-12-09T20:26:35.059Z,99061.35
2018-12-09T20:29:39.641Z,99071.90
2018-12-09T20:32:44.415Z,99083.53
2018-12-09T20:35:48.976Z,99088.06
2018-12-09T20:38:53.551Z,99097.03
2018-12-09T20:41:58.153Z,99103.50
2018-12-09T20:45:02.846Z,99097.52
2018-12-09T20:48:13.354Z,99113.81
2018-12-09T20:51:20.008Z,99116.59
2018-12-09T20:54:24.735Z,99130.06
2018-12-09T20:57:29.209Z,99137.48
2018-12-09T21:00:33.750Z,99127.68
2018-12-09T21:03:38.443Z,99148.31
2018-12-09T21:06:44.472Z,99144.81
2018-12-09T21:09:49.049Z,99149.52
2018-12-09T21:12:53.631Z,99154.28
2018-12-09T21:15:58.267Z,99158.80
2018-12-09T21:19:02.904Z,99162.41
2018-12-09T21:22:07.457Z,99172.20
2018-12-09T21:25:12.110Z,99169.63
2018-12-09T21:28:16.792Z,99177.15
2018-12-09T21:31:21.325Z,99177.16
2018-12-09T21:34:25.819Z,99183.66
2018-12-09T21:37:30.387Z,99184.37
2018-12-09T21:40:35.060Z,99210.97
2018-12-09T21:43:39.960Z,99215.61
2018-12-09T21:46:44.601Z,99209.94
2018-12-09T21:49:49.191Z,99215.81
2018-12-09T21:52:53.831Z,99231.80
2018-12-09T21:55:58.364Z,99238.27
2018-12-09T21:59:02.965Z,99233.66
2018-12-09T22:02:07.493Z,99260.00
2018-12-09T22:05:12.066Z,99260.00
2018-12-09T22:08:16.719Z,99252.98
2018-12-09T22:11:21.469Z,99263.01
2018-12-09T22:14:26.178Z,99281.30
2018-12-09T22:17:30.948Z,99287.63
2018-12-09T22:20:35.857Z,99292.06
2018-12-09T22:23:40.445Z,99286.13
2018-12-09T22:26:45.021Z,99299.22
2018-12-09T22:29:49.667Z,99305.45
2018-12-09T22:32:54.468Z,99316.80
2018-12-09T22:35:59.855Z,99328.25
2018-12-09T22:39:06.725Z,99345.44
2018-12-09T22:42:11.295Z,99343.08
2018-12-09T22:45:15.946Z,99368.73
2018-12-09T22:48:20.654Z,99367.02
2018-12-09T22:51:25.408Z,99374.17
2018-12-09T22:54:30.123Z,99376.69
2018-12-09T22:57:34.884Z,99375.43
2018-12-09T23:00:45.243Z,99378.11
2018-12-09T23:03:50.182Z,99386.62
2018-12-09T23:06:59.340Z,99375.91
2018-12-09T23:10:04.263Z,99387.00
2018-12-09T23:13:08.849Z,99388.21
2018-12-09T23:16:13.380Z,99396.95
2018-12-09T23:19:17.927Z,99403.30
2018-12-09T23:22:22.502Z,99399.94
2018-12-09T23:25:27.084Z,99404.38
2018-12-09T23:28:31.796Z,99412.23
2018-12-09T23:31:36.494Z,99419.30
2018-12-09T23:34:41.080Z,99417.23
2018-12-09T23:37:45.862Z,99409.41
2018-12-09T23:40:50.488Z,99419.21
2018-12-09T23:43:55.133Z,99422.01
2018-12-09T23:46:59.859Z,99420.23
2018-12-09T23:50:05.023Z,99410.36
2018-12-09T23:53:09.613Z,99411.75
2018-12-09T23:56:14.876Z,99424.77
2018-12-09T23:59:20.321Z,99430.16
